sensor_id;sensor_type;location;lat;lon;timestamp;pressure;altitude;pressure_sealevel;temperature;humidity
76378;BME280;65200;49.500;8.654;2023-05-27T00:00:13;101265.38;;;15.66;51.29
76378;BME280;65200;49.500;8.654;2023-05-27T00:02:40;101267.41;;;15.51;52.05
76378;BME280;65200;49.500;8.654;2023-05-27T00:05:07;101259.75;;;15.27;52.67
76378;BME280;65200;49.500;8.654;2023-05-27T00:07:33;101275.25;;;15.40;51.37
76378;BME280;65200;49.500;8.654;2023-05-27T00:10:00;101280.06;;;15.51;52.30
76378;BME280;65200;49.500;8.654;2023-05-27T00:12:28;101271.75;;;15.18;52.33
76378;BME280;65200;49.500;8.654;2023-05-27T00:14:55;101269.53;;;15.28;52.29
76378;BME280;65200;49.500;8.654;2023-05-27T00:17:21;101276.41;;;15.37;52.17
76378;BME280;65200;49.500;8.654;2023-05-27T00:19:48;101277.75;;;15.13;54.27
76378;BME280;65200;49.500;8.654;2023-05-27T00:22:14;101274.25;;;15.20;52.70
76378;BME280;65200;49.500;8.654;2023-05-27T00:24:41;101261.69;;;14.78;54.54
76378;BME280;65200;49.500;8.654;2023-05-27T00:27:09;101279.25;;;14.67;55.46
76378;BME280;65200;49.500;8.654;2023-05-27T00:29:39;101275.84;;;14.59;56.20
76378;BME280;65200;49.500;8.654;2023-05-27T00:32:06;101268.59;;;14.87;54.23
76378;BME280;65200;49.500;8.654;2023-05-27T00:34:33;101278.66;;;14.72;55.84
76378;BME280;65200;49.500;8.654;2023-05-27T00:36:59;101263.00;;;14.61;53.47
76378;BME280;65200;49.500;8.654;2023-05-27T00:39:26;101260.84;;;14.77;54.19
76378;BME280;65200;49.500;8.654;2023-05-27T00:41:53;101263.66;;;14.90;53.10
76378;BME280;65200;49.500;8.654;2023-05-27T00:44:20;101275.97;;;14.99;54.55
76378;BME280;65200;49.500;8.654;2023-05-27T00:46:48;101280.16;;;15.02;53.28
76378;BME280;65200;49.500;8.654;2023-05-27T00:49:16;101267.59;;;14.88;53.91
76378;BME280;65200;49.500;8.654;2023-05-27T00:51:43;101270.41;;;14.80;54.61
76378;BME280;65200;49.500;8.654;2023-05-27T00:54:10;101274.38;;;14.56;55.66
76378;BME280;65200;49.500;8.654;2023-05-27T00:56:37;101273.00;;;14.46;56.55
76378;BME280;65200;49.500;8.654;2023-05-27T00:59:04;101275.34;;;14.28;56.67
76378;BME280;65200;49.500;8.654;2023-05-27T01:01:31;101277.56;;;14.24;57.52
76378;BME280;65200;49.500;8.654;2023-05-27T01:04:00;101277.03;;;14.14;57.33
76378;BME280;65200;49.500;8.654;2023-05-27T01:06:31;101275.31;;;14.07;56.82
76378;BME280;65200;49.500;8.654;2023-05-27T01:09:06;101260.78;;;14.08;56.29
76378;BME280;65200;49.500;8.654;2023-05-27T01:11:39;101261.25;;;14.11;56.87
76378;BME280;65200;49.500;8.654;2023-05-27T01:14:14;101268.09;;;14.14;55.52
76378;BME280;65200;49.500;8.654;2023-05-27T01:16:43;101274.53;;;14.13;57.04
76378;BME280;65200;49.500;8.654;2023-05-27T01:19:14;101276.16;;;13.93;59.33
76378;BME280;65200;49.500;8.654;2023-05-27T01:21:46;101273.16;;;13.66;59.36
76378;BME280;65200;49.500;8.654;2023-05-27T01:24:17;101266.28;;;13.64;57.56
76378;BME280;65200;49.500;8.654;2023-05-27T01:26:44;101238.22;;;13.58;56.99
76378;BME280;65200;49.500;8.654;2023-05-27T01:29:10;101265.88;;;13.82;56.71
76378;BME280;65200;49.500;8.654;2023-05-27T01:31:41;101251.69;;;13.58;58.92
76378;BME280;65200;49.500;8.654;2023-05-27T01:34:10;101259.13;;;13.56;59.54
76378;BME280;65200;49.500;8.654;2023-05-27T01:36:43;101266.28;;;13.64;58.71
76378;BME280;65200;49.500;8.654;2023-05-27T01:39:12;101216.63;;;13.37;59.58
76378;BME280;65200;49.500;8.654;2023-05-27T01:41:42;101196.50;;;13.33;57.97
76378;BME280;65200;49.500;8.654;2023-05-27T01:44:09;101258.59;;;13.46;59.71
76378;BME280;65200;49.500;8.654;2023-05-27T01:46:36;101251.81;;;13.50;59.45
76378;BME280;65200;49.500;8.654;2023-05-27T01:49:03;101242.88;;;13.50;59.32
76378;BME280;65200;49.500;8.654;2023-05-27T01:51:29;101252.09;;;13.41;59.40
76378;BME280;65200;49.500;8.654;2023-05-27T01:53:56;101249.31;;;13.34;58.70
76378;BME280;65200;49.500;8.654;2023-05-27T01:56:22;101247.47;;;13.20;58.84
76378;BME280;65200;49.500;8.654;2023-05-27T01:58:50;101240.13;;;13.14;58.87
76378;BME280;65200;49.500;8.654;2023-05-27T02:01:16;101247.28;;;13.22;58.69
76378;BME280;65200;49.500;8.654;2023-05-27T02:03:43;101248.66;;;13.32;57.93
76378;BME280;65200;49.500;8.654;2023-05-27T02:06:10;101250.06;;;13.28;58.74
76378;BME280;65200;49.500;8.654;2023-05-27T02:08:37;101253.44;;;12.93;60.58
76378;BME280;65200;49.500;8.654;2023-05-27T02:11:03;101254.09;;;12.95;60.00
76378;BME280;65200;49.500;8.654;2023-05-27T02:13:30;101254.63;;;12.76;62.04
76378;BME280;65200;49.500;8.654;2023-05-27T02:15:57;101248.66;;;13.03;59.36
76378;BME280;65200;49.500;8.654;2023-05-27T02:18:25;101243.47;;;13.02;59.73
76378;BME280;65200;49.500;8.654;2023-05-27T02:20:51;101249.09;;;12.92;60.18
76378;BME280;65200;49.500;8.654;2023-05-27T02:23:18;101252.69;;;12.48;63.57
76378;BME280;65200;49.500;8.654;2023-05-27T02:25:44;101248.41;;;12.16;63.46
76378;BME280;65200;49.500;8.654;2023-05-27T02:28:10;101216.03;;;12.09;64.24
76378;BME280;65200;49.500;8.654;2023-05-27T02:30:38;101238.41;;;12.02;62.87
76378;BME280;65200;49.500;8.654;2023-05-27T02:33:06;101252.06;;;12.46;60.91
76378;BME280;65200;49.500;8.654;2023-05-27T02:35:32;101226.47;;;12.27;62.53
76378;BME280;65200;49.500;8.654;2023-05-27T02:37:59;101237.72;;;12.30;60.44
76378;BME280;65200;49.500;8.654;2023-05-27T02:40:26;101229.09;;;12.35;62.12
76378;BME280;65200;49.500;8.654;2023-05-27T02:42:53;101234.19;;;12.30;62.90
76378;BME280;65200;49.500;8.654;2023-05-27T02:45:19;101235.75;;;12.24;63.18
76378;BME280;65200;49.500;8.654;2023-05-27T02:47:46;101236.94;;;12.22;59.11
76378;BME280;65200;49.500;8.654;2023-05-27T02:50:14;101231.88;;;12.27;61.45
76378;BME280;65200;49.500;8.654;2023-05-27T02:52:40;101231.78;;;12.35;61.59
76378;BME280;65200;49.500;8.654;2023-05-27T02:55:07;101232.22;;;12.24;61.28
76378;BME280;65200;49.500;8.654;2023-05-27T02:57:34;101232.28;;;12.16;61.27
76378;BME280;65200;49.500;8.654;2023-05-27T03:00:01;101229.78;;;12.37;60.80
76378;BME280;65200;49.500;8.654;2023-05-27T03:02:28;101222.19;;;12.18;60.48
76378;BME280;65200;49.500;8.654;2023-05-27T03:04:55;101232.53;;;12.29;58.69
76378;BME280;65200;49.500;8.654;2023-05-27T03:07:23;101234.13;;;12.38;60.19
76378;BME280;65200;49.500;8.654;2023-05-27T03:09:49;101230.72;;;12.21;60.33
76378;BME280;65200;49.500;8.654;2023-05-27T03:12:16;101238.47;;;12.16;60.93
76378;BME280;65200;49.500;8.654;2023-05-27T03:14:42;101221.00;;;11.98;61.79
76378;BME280;65200;49.500;8.654;2023-05-27T03:17:09;101232.84;;;11.81;63.15
76378;BME280;65200;49.500;8.654;2023-05-27T03:19:35;101232.94;;;11.65;63.42
76378;BME280;65200;49.500;8.654;2023-05-27T03:22:02;101234.72;;;11.80;62.87
76378;BME280;65200;49.500;8.654;2023-05-27T03:24:30;101233.91;;;11.72;63.69
76378;BME280;65200;49.500;8.654;2023-05-27T03:26:56;101226.44;;;11.51;65.03
76378;BME280;65200;49.500;8.654;2023-05-27T03:29:23;101234.09;;;11.62;61.99
76378;BME280;65200;49.500;8.654;2023-05-27T03:31:49;101233.88;;;11.80;60.85
76378;BME280;65200;49.500;8.654;2023-05-27T03:34:16;101236.50;;;11.88;61.60
76378;BME280;65200;49.500;8.654;2023-05-27T03:36:42;101231.78;;;11.90;60.79
76378;BME280;65200;49.500;8.654;2023-05-27T03:39:11;101235.53;;;11.81;62.60
76378;BME280;65200;49.500;8.654;2023-05-27T03:41:39;101236.91;;;11.77;63.05
76378;BME280;65200;49.500;8.654;2023-05-27T03:44:05;101225.50;;;11.75;62.03
76378;BME280;65200;49.500;8.654;2023-05-27T03:46:32;101226.84;;;11.79;60.83
76378;BME280;65200;49.500;8.654;2023-05-27T03:48:59;101222.09;;;11.81;61.83
76378;BME280;65200;49.500;8.654;2023-05-27T03:51:26;101216.72;;;11.81;60.78
76378;BME280;65200;49.500;8.654;2023-05-27T03:53:52;101223.66;;;11.75;62.44
76378;BME280;65200;49.500;8.654;2023-05-27T03:56:19;101233.56;;;11.75;60.75
76378;BME280;65200;49.500;8.654;2023-05-27T03:58:47;101230.09;;;11.89;60.10
76378;BME280;65200;49.500;8.654;2023-05-27T04:01:14;101238.81;;;11.91;61.27
76378;BME280;65200;49.500;8.654;2023-05-27T04:03:42;101231.75;;;11.67;62.06
76378;BME280;65200;49.500;8.654;2023-05-27T04:06:08;101239.47;;;11.70;61.95
76378;BME280;65200;49.500;8.654;2023-05-27T04:08:35;101236.81;;;11.93;58.77
76378;BME280;65200;49.500;8.654;2023-05-27T04:11:02;101243.69;;;11.65;63.50
76378;BME280;65200;49.500;8.654;2023-05-27T04:13:29;101240.69;;;11.90;60.05
76378;BME280;65200;49.500;8.654;2023-05-27T04:15:57;101232.78;;;11.97;60.10
76378;BME280;65200;49.500;8.654;2023-05-27T04:18:24;101229.06;;;11.98;60.63
76378;BME280;65200;49.500;8.654;2023-05-27T04:20:51;101233.03;;;12.02;59.71
76378;BME280;65200;49.500;8.654;2023-05-27T04:23:17;101238.53;;;12.08;58.74
76378;BME280;65200;49.500;8.654;2023-05-27T04:25:44;101236.75;;;12.01;61.53
76378;BME280;65200;49.500;8.654;2023-05-27T04:28:10;101244.31;;;11.97;59.97
76378;BME280;65200;49.500;8.654;2023-05-27T04:30:37;101238.25;;;12.26;60.82
76378;BME280;65200;49.500;8.654;2023-05-27T04:33:06;101237.00;;;12.14;60.18
76378;BME280;65200;49.500;8.654;2023-05-27T04:35:33;101239.31;;;12.17;61.71
76378;BME280;65200;49.500;8.654;2023-05-27T04:38:00;101213.28;;;12.17;61.01
76378;BME280;65200;49.500;8.654;2023-05-27T04:40:27;101239.94;;;12.27;61.43
76378;BME280;65200;49.500;8.654;2023-05-27T04:42:54;101238.16;;;12.19;61.97
76378;BME280;65200;49.500;8.654;2023-05-27T04:45:20;101243.47;;;12.27;61.73
76378;BME280;65200;49.500;8.654;2023-05-27T04:47:47;101244.22;;;12.36;60.53
76378;BME280;65200;49.500;8.654;2023-05-27T04:50:14;101228.38;;;12.41;60.62
76378;BME280;65200;49.500;8.654;2023-05-27T04:52:41;101237.41;;;12.48;62.09
76378;BME280;65200;49.500;8.654;2023-05-27T04:55:09;101238.72;;;12.52;61.55
76378;BME280;65200;49.500;8.654;2023-05-27T04:57:36;101239.72;;;12.51;61.35
76378;BME280;65200;49.500;8.654;2023-05-27T05:00:07;101233.91;;;12.62;61.91
76378;BME280;65200;49.500;8.654;2023-05-27T05:02:48;101197.72;;;12.50;62.20
76378;BME280;65200;49.500;8.654;2023-05-27T05:05:16;101217.25;;;12.67;61.12
76378;BME280;65200;49.500;8.654;2023-05-27T05:07:42;101233.31;;;12.89;61.64
76378;BME280;65200;49.500;8.654;2023-05-27T05:10:10;101231.53;;;12.96;60.79
76378;BME280;65200;49.500;8.654;2023-05-27T05:12:36;101232.28;;;12.90;60.80
76378;BME280;65200;49.500;8.654;2023-05-27T05:15:05;101180.31;;;12.75;60.71
76378;BME280;65200;49.500;8.654;2023-05-27T05:17:32;101219.81;;;13.12;60.51
76378;BME280;65200;49.500;8.654;2023-05-27T05:19:58;101235.66;;;13.21;61.53
76378;BME280;65200;49.500;8.654;2023-05-27T05:22:26;101208.00;;;13.13;59.55
76378;BME280;65200;49.500;8.654;2023-05-27T05:24:54;101186.25;;;13.00;60.07
76378;BME280;65200;49.500;8.654;2023-05-27T05:27:20;101229.53;;;13.42;59.22
76378;BME280;65200;49.500;8.654;2023-05-27T05:29:47;101241.41;;;13.47;60.87
76378;BME280;65200;49.500;8.654;2023-05-27T05:32:13;101235.34;;;13.60;59.27
76378;BME280;65200;49.500;8.654;2023-05-27T05:34:40;101232.34;;;13.69;57.44
76378;BME280;65200;49.500;8.654;2023-05-27T05:37:06;101234.13;;;13.77;57.94
76378;BME280;65200;49.500;8.654;2023-05-27T05:39:34;101236.25;;;13.82;58.24
76378;BME280;65200;49.500;8.654;2023-05-27T05:42:00;101237.44;;;13.94;57.51
76378;BME280;65200;49.500;8.654;2023-05-27T05:44:27;101197.28;;;13.84;57.27
76378;BME280;65200;49.500;8.654;2023-05-27T05:46:54;101243.19;;;14.12;59.13
76378;BME280;65200;49.500;8.654;2023-05-27T05:49:20;101240.75;;;14.17;59.26
76378;BME280;65200;49.500;8.654;2023-05-27T05:51:47;101244.84;;;14.27;55.23
76378;BME280;65200;49.500;8.654;2023-05-27T05:54:13;101244.91;;;14.34;56.57
76378;BME280;65200;49.500;8.654;2023-05-27T05:56:41;101247.03;;;14.38;56.34
76378;BME280;65200;49.500;8.654;2023-05-27T05:59:08;101245.28;;;14.52;56.66
76378;BME280;65200;49.500;8.654;2023-05-27T06:01:34;101235.56;;;14.57;57.61
76378;BME280;65200;49.500;8.654;2023-05-27T06:04:01;101206.63;;;14.45;56.50
76378;BME280;65200;49.500;8.654;2023-05-27T06:06:29;101232.72;;;14.65;56.50
76378;BME280;65200;49.500;8.654;2023-05-27T06:08:56;101239.66;;;14.74;55.45
76378;BME280;65200;49.500;8.654;2023-05-27T06:11:22;101244.03;;;14.75;57.25
76378;BME280;65200;49.500;8.654;2023-05-27T06:13:50;101246.19;;;14.86;56.65
76378;BME280;65200;49.500;8.654;2023-05-27T06:16:17;101245.81;;;14.89;58.31
76378;BME280;65200;49.500;8.654;2023-05-27T06:18:43;101200.53;;;14.64;56.54
76378;BME280;65200;49.500;8.654;2023-05-27T06:21:11;101201.09;;;14.80;57.23
76378;BME280;65200;49.500;8.654;2023-05-27T06:23:37;101250.06;;;15.05;55.98
76378;BME280;65200;49.500;8.654;2023-05-27T06:26:04;101248.00;;;15.07;58.09
76378;BME280;65200;49.500;8.654;2023-05-27T06:28:30;101246.56;;;15.11;57.56
76378;BME280;65200;49.500;8.654;2023-05-27T06:30:58;101234.22;;;15.30;57.23
76378;BME280;65200;49.500;8.654;2023-05-27T06:33:25;101239.53;;;15.44;53.63
76378;BME280;65200;49.500;8.654;2023-05-27T06:35:51;101222.09;;;15.53;52.80
76378;BME280;65200;49.500;8.654;2023-05-27T06:38:18;101238.19;;;15.74;55.11
76378;BME280;65200;49.500;8.654;2023-05-27T06:40:44;101241.34;;;15.91;50.89
76378;BME280;65200;49.500;8.654;2023-05-27T06:43:11;101231.19;;;15.99;49.99
76378;BME280;65200;49.500;8.654;2023-05-27T06:45:37;101232.88;;;16.07;51.12
76378;BME280;65200;49.500;8.654;2023-05-27T06:48:05;101224.75;;;16.00;53.01
76378;BME280;65200;49.500;8.654;2023-05-27T06:50:32;101218.75;;;16.11;52.28
76378;BME280;65200;49.500;8.654;2023-05-27T06:52:59;101227.28;;;16.21;51.68
76378;BME280;65200;49.500;8.654;2023-05-27T06:55:25;101223.16;;;16.38;51.38
76378;BME280;65200;49.500;8.654;2023-05-27T06:57:52;101225.22;;;16.43;49.05
76378;BME280;65200;49.500;8.654;2023-05-27T07:00:19;101230.63;;;16.43;47.89
76378;BME280;65200;49.500;8.654;2023-05-27T07:02:45;101212.16;;;16.53;48.57
76378;BME280;65200;49.500;8.654;2023-05-27T07:05:13;101231.09;;;16.66;51.17
76378;BME280;65200;49.500;8.654;2023-05-27T07:07:39;101232.97;;;16.85;50.09
76378;BME280;65200;49.500;8.654;2023-05-27T07:10:07;101228.94;;;17.27;47.66
76378;BME280;65200;49.500;8.654;2023-05-27T07:12:33;101228.00;;;17.65;48.57
76378;BME280;65200;49.500;8.654;2023-05-27T07:15:00;101227.84;;;18.60;43.01
76378;BME280;65200;49.500;8.654;2023-05-27T07:17:26;101225.66;;;19.54;45.25
76378;BME280;65200;49.500;8.654;2023-05-27T07:19:53;101188.56;;;19.89;40.82
76378;BME280;65200;49.500;8.654;2023-05-27T07:22:21;101224.59;;;20.03;41.14
76378;BME280;65200;49.500;8.654;2023-05-27T07:24:47;101225.91;;;20.41;42.33
76378;BME280;65200;49.500;8.654;2023-05-27T07:27:14;101223.25;;;20.76;42.67
76378;BME280;65200;49.500;8.654;2023-05-27T07:29:40;101217.13;;;21.04;41.46
76378;BME280;65200;49.500;8.654;2023-05-27T07:32:07;101220.75;;;20.75;42.84
76378;BME280;65200;49.500;8.654;2023-05-27T07:34:33;101216.88;;;21.17;40.56
76378;BME280;65200;49.500;8.654;2023-05-27T07:37:00;101210.81;;;21.26;40.06
76378;BME280;65200;49.500;8.654;2023-05-27T07:39:28;101213.09;;;21.69;38.03
76378;BME280;65200;49.500;8.654;2023-05-27T07:41:54;101218.25;;;21.42;41.84
76378;BME280;65200;49.500;8.654;2023-05-27T07:44:21;101198.94;;;21.32;37.17
76378;BME280;65200;49.500;8.654;2023-05-27T07:46:47;101212.88;;;21.59;41.51
76378;BME280;65200;49.500;8.654;2023-05-27T07:49:14;101199.06;;;21.89;37.05
76378;BME280;65200;49.500;8.654;2023-05-27T07:51:41;101202.69;;;21.54;39.22
76378;BME280;65200;49.500;8.654;2023-05-27T07:54:07;101200.03;;;21.31;39.86
76378;BME280;65200;49.500;8.654;2023-05-27T07:56:35;101189.44;;;21.74;40.83
76378;BME280;65200;49.500;8.654;2023-05-27T07:59:02;101190.31;;;21.63;40.41
76378;BME280;65200;49.500;8.654;2023-05-27T08:01:29;101195.13;;;22.13;40.37
76378;BME280;65200;49.500;8.654;2023-05-27T08:03:57;101190.66;;;22.23;38.70
76378;BME280;65200;49.500;8.654;2023-05-27T08:06:24;101189.22;;;22.04;39.36
76378;BME280;65200;49.500;8.654;2023-05-27T08:08:51;101186.31;;;21.94;38.90
76378;BME280;65200;49.500;8.654;2023-05-27T08:11:17;101185.66;;;22.04;39.23
76378;BME280;65200;49.500;8.654;2023-05-27T08:13:46;101190.84;;;22.33;38.51
76378;BME280;65200;49.500;8.654;2023-05-27T08:16:13;101196.22;;;21.84;41.33
76378;BME280;65200;49.500;8.654;2023-05-27T08:18:39;101175.03;;;21.91;38.86
76378;BME280;65200;49.500;8.654;2023-05-27T08:21:06;101187.09;;;22.06;39.84
76378;BME280;65200;49.500;8.654;2023-05-27T08:23:32;101173.31;;;21.85;41.78
76378;BME280;65200;49.500;8.654;2023-05-27T08:25:59;101179.25;;;21.82;40.46
76378;BME280;65200;49.500;8.654;2023-05-27T08:28:25;101184.13;;;21.80;40.32
76378;BME280;65200;49.500;8.654;2023-05-27T08:30:53;101181.34;;;22.69;35.34
76378;BME280;65200;49.500;8.654;2023-05-27T08:33:20;101178.25;;;22.16;42.33
76378;BME280;65200;49.500;8.654;2023-05-27T08:35:46;101167.00;;;22.29;38.53
76378;BME280;65200;49.500;8.654;2023-05-27T08:38:13;101164.19;;;22.24;43.57
76378;BME280;65200;49.500;8.654;2023-05-27T08:40:40;101159.06;;;22.77;39.12
76378;BME280;65200;49.500;8.654;2023-05-27T08:43:06;101160.72;;;22.78;41.18
76378;BME280;65200;49.500;8.654;2023-05-27T08:45:33;101164.41;;;22.67;38.10
76378;BME280;65200;49.500;8.654;2023-05-27T08:48:01;101158.44;;;22.70;39.59
76378;BME280;65200;49.500;8.654;2023-05-27T08:50:28;101154.03;;;22.69;39.57
76378;BME280;65200;49.500;8.654;2023-05-27T08:52:55;101155.59;;;22.81;36.93
76378;BME280;65200;49.500;8.654;2023-05-27T08:55:22;101144.34;;;22.78;40.77
76378;BME280;65200;49.500;8.654;2023-05-27T08:57:50;101136.22;;;22.66;40.61
76378;BME280;65200;49.500;8.654;2023-05-27T09:00:18;101123.72;;;22.37;41.51
76378;BME280;65200;49.500;8.654;2023-05-27T09:02:44;101118.44;;;22.31;40.17
76378;BME280;65200;49.500;8.654;2023-05-27T09:05:13;101145.22;;;22.83;37.23
76378;BME280;65200;49.500;8.654;2023-05-27T09:07:41;101146.75;;;23.13;38.97
76378;BME280;65200;49.500;8.654;2023-05-27T09:10:08;101141.63;;;23.21;40.44
76378;BME280;65200;49.500;8.654;2023-05-27T09:12:35;101144.56;;;22.93;43.01
76378;BME280;65200;49.500;8.654;2023-05-27T09:15:02;101137.94;;;22.72;38.37
76378;BME280;65200;49.500;8.654;2023-05-27T09:17:29;101133.69;;;22.60;39.95
76378;BME280;65200;49.500;8.654;2023-05-27T09:19:56;101124.00;;;22.52;44.63
76378;BME280;65200;49.500;8.654;2023-05-27T09:22:26;101119.66;;;22.40;39.95
76378;BME280;65200;49.500;8.654;2023-05-27T09:24:52;101137.19;;;22.11;42.89
76378;BME280;65200;49.500;8.654;2023-05-27T09:27:24;101118.84;;;22.23;39.56
76378;BME280;65200;49.500;8.654;2023-05-27T09:29:51;101134.28;;;22.83;38.26
76378;BME280;65200;49.500;8.654;2023-05-27T09:32:23;101135.16;;;23.05;40.02
76378;BME280;65200;49.500;8.654;2023-05-27T09:34:50;101127.97;;;22.61;40.35
76378;BME280;65200;49.500;8.654;2023-05-27T09:37:17;101115.69;;;22.64;39.36
76378;BME280;65200;49.500;8.654;2023-05-27T09:39:47;101129.25;;;22.75;40.97
76378;BME280;65200;49.500;8.654;2023-05-27T09:42:14;101120.78;;;23.15;38.34
76378;BME280;65200;49.500;8.654;2023-05-27T09:44:40;101120.47;;;23.12;42.69
76378;BME280;65200;49.500;8.654;2023-05-27T09:47:07;101119.72;;;22.78;42.36
76378;BME280;65200;49.500;8.654;2023-05-27T09:49:36;101116.69;;;22.74;40.56
76378;BME280;65200;49.500;8.654;2023-05-27T09:52:05;101116.53;;;22.64;41.77
76378;BME280;65200;49.500;8.654;2023-05-27T09:54:32;101115.25;;;22.72;45.03
76378;BME280;65200;49.500;8.654;2023-05-27T09:57:00;101104.69;;;22.97;41.08
76378;BME280;65200;49.500;8.654;2023-05-27T09:59:26;101112.22;;;23.28;42.68
76378;BME280;65200;49.500;8.654;2023-05-27T10:01:54;101097.00;;;23.16;46.69
76378;BME280;65200;49.500;8.654;2023-05-27T10:04:21;101095.75;;;23.45;37.13
76378;BME280;65200;49.500;8.654;2023-05-27T10:06:48;101093.81;;;23.72;40.77
76378;BME280;65200;49.500;8.654;2023-05-27T10:09:16;101092.31;;;23.33;42.31
76378;BME280;65200;49.500;8.654;2023-05-27T10:11:44;101087.72;;;23.91;40.76
76378;BME280;65200;49.500;8.654;2023-05-27T10:14:12;101083.13;;;23.97;40.63
76378;BME280;65200;49.500;8.654;2023-05-27T10:16:51;101083.63;;;24.20;38.52
76378;BME280;65200;49.500;8.654;2023-05-27T10:19:19;101033.25;;;24.26;37.52
76378;BME280;65200;49.500;8.654;2023-05-27T10:21:45;101082.09;;;24.34;36.46
76378;BME280;65200;49.500;8.654;2023-05-27T10:24:12;101056.94;;;24.06;42.53
76378;BME280;65200;49.500;8.654;2023-05-27T10:26:40;101065.13;;;24.38;39.13
76378;BME280;65200;49.500;8.654;2023-05-27T10:29:08;101079.28;;;24.66;39.77
76378;BME280;65200;49.500;8.654;2023-05-27T10:31:44;101078.69;;;25.06;34.71
76378;BME280;65200;49.500;8.654;2023-05-27T10:34:10;101069.59;;;25.00;36.59
76378;BME280;65200;49.500;8.654;2023-05-27T10:36:37;101075.41;;;25.09;34.32
76378;BME280;65200;49.500;8.654;2023-05-27T10:39:11;101059.25;;;25.17;36.02
76378;BME280;65200;49.500;8.654;2023-05-27T10:41:38;101067.75;;;25.11;36.48
76378;BME280;65200;49.500;8.654;2023-05-27T10:44:05;101055.69;;;25.22;34.67
76378;BME280;65200;49.500;8.654;2023-05-27T10:46:40;101066.69;;;25.27;33.71
76378;BME280;65200;49.500;8.654;2023-05-27T10:49:22;101045.69;;;24.91;34.32
76378;BME280;65200;49.500;8.654;2023-05-27T10:51:49;101056.03;;;24.69;33.01
76378;BME280;65200;49.500;8.654;2023-05-27T10:54:15;101057.16;;;25.44;32.53
76378;BME280;65200;49.500;8.654;2023-05-27T10:56:48;101042.28;;;25.30;30.60
76378;BME280;65200;49.500;8.654;2023-05-27T10:59:17;101059.13;;;25.59;31.29
76378;BME280;65200;49.500;8.654;2023-05-27T11:01:48;101052.00;;;25.78;30.76
76378;BME280;65200;49.500;8.654;2023-05-27T11:04:16;101051.44;;;25.81;31.77
76378;BME280;65200;49.500;8.654;2023-05-27T11:06:56;101050.66;;;25.91;33.26
76378;BME280;65200;49.500;8.654;2023-05-27T11:09:22;101002.81;;;25.46;36.63
76378;BME280;65200;49.500;8.654;2023-05-27T11:11:49;101031.03;;;25.32;33.75
76378;BME280;65200;49.500;8.654;2023-05-27T11:14:15;101024.31;;;24.93;33.21
76378;BME280;65200;49.500;8.654;2023-05-27T11:16:47;101028.59;;;25.35;29.64
76378;BME280;65200;49.500;8.654;2023-05-27T11:19:16;101033.84;;;25.52;29.35
76378;BME280;65200;49.500;8.654;2023-05-27T11:21:46;101014.91;;;25.60;32.80
76378;BME280;65200;49.500;8.654;2023-05-27T11:24:16;101019.78;;;25.33;32.39
76378;BME280;65200;49.500;8.654;2023-05-27T11:26:44;101026.00;;;24.99;32.97
76378;BME280;65200;49.500;8.654;2023-05-27T11:29:12;101018.94;;;25.23;30.13
76378;BME280;65200;49.500;8.654;2023-05-27T11:31:40;101015.19;;;25.54;30.33
76378;BME280;65200;49.500;8.654;2023-05-27T11:34:12;101012.97;;;25.41;32.17
76378;BME280;65200;49.500;8.654;2023-05-27T11:36:39;101016.00;;;25.75;33.81
76378;BME280;65200;49.500;8.654;2023-05-27T11:39:09;101011.34;;;25.60;33.52
76378;BME280;65200;49.500;8.654;2023-05-27T11:41:48;101009.03;;;25.12;35.86
76378;BME280;65200;49.500;8.654;2023-05-27T11:44:15;101011.00;;;25.31;34.42
76378;BME280;65200;49.500;8.654;2023-05-27T11:46:43;100979.69;;;25.12;36.51
76378;BME280;65200;49.500;8.654;2023-05-27T11:49:12;100968.75;;;25.37;34.73
76378;BME280;65200;49.500;8.654;2023-05-27T11:51:40;101005.84;;;25.50;28.63
76378;BME280;65200;49.500;8.654;2023-05-27T11:54:07;101004.47;;;25.57;34.72
76378;BME280;65200;49.500;8.654;2023-05-27T11:56:33;100999.47;;;25.29;30.94
76378;BME280;65200;49.500;8.654;2023-05-27T11:59:00;100980.31;;;25.75;32.37
76378;BME280;65200;49.500;8.654;2023-05-27T12:01:27;100985.81;;;25.95;31.38
76378;BME280;65200;49.500;8.654;2023-05-27T12:03:53;100969.56;;;25.33;31.09
76378;BME280;65200;49.500;8.654;2023-05-27T12:06:21;100961.94;;;25.50;31.65
76378;BME280;65200;49.500;8.654;2023-05-27T12:08:48;100956.69;;;25.89;29.52
76378;BME280;65200;49.500;8.654;2023-05-27T12:11:14;100965.34;;;26.56;28.37
76378;BME280;65200;49.500;8.654;2023-05-27T12:13:41;100965.41;;;26.46;28.14
76378;BME280;65200;49.500;8.654;2023-05-27T12:16:08;100965.38;;;26.51;30.26
76378;BME280;65200;49.500;8.654;2023-05-27T12:18:35;100957.38;;;26.54;28.39
76378;BME280;65200;49.500;8.654;2023-05-27T12:21:02;100954.25;;;26.86;28.45
76378;BME280;65200;49.500;8.654;2023-05-27T12:23:30;100915.31;;;26.54;30.25
76378;BME280;65200;49.500;8.654;2023-05-27T12:25:56;100946.19;;;26.31;35.85
76378;BME280;65200;49.500;8.654;2023-05-27T12:28:23;100939.38;;;25.83;33.99
76378;BME280;65200;49.500;8.654;2023-05-27T12:30:49;100942.41;;;25.77;38.16
76378;BME280;65200;49.500;8.654;2023-05-27T12:33:16;100911.97;;;25.38;36.96
76378;BME280;65200;49.500;8.654;2023-05-27T12:35:43;100931.97;;;25.48;34.99
76378;BME280;65200;49.500;8.654;2023-05-27T12:38:09;100933.94;;;25.63;35.14
76378;BME280;65200;49.500;8.654;2023-05-27T12:40:38;100920.16;;;25.73;33.48
76378;BME280;65200;49.500;8.654;2023-05-27T12:43:04;100919.03;;;25.94;33.49
76378;BME280;65200;49.500;8.654;2023-05-27T12:45:31;100931.41;;;25.97;36.70
76378;BME280;65200;49.500;8.654;2023-05-27T12:47:58;100925.41;;;25.64;35.41
76378;BME280;65200;49.500;8.654;2023-05-27T12:50:25;100931.72;;;25.55;31.87